Time;durP1;ratioP1;P1;durP2;ratioP2;P2;SDS_P1;SDS_P2;PMS_P1;PMS_P2;Temp;Humidity;BMP_temperature;BMP_pressure;BME280_temperature;BME280_humidity;BME280_pressure;Samples;Min_cycle;Max_cycle;Signal;HPM_P1;HPM_P2
2022/11/25 00:00:14;;;;;;;15.45;7.03;;;16.60;52.70;;;;;;5013812;28;20677;-55
2022/11/25 00:02:43;;;;;;;13.50;6.53;;;16.60;52.60;;;;;;5013873;28;20276;-56
2022/11/25 00:05:11;;;;;;;13.43;5.65;;;16.50;52.60;;;;;;5013867;28;20196;-57
2022/11/25 00:07:39;;;;;;;10.27;5.43;;;16.40;52.60;;;;;;5012429;28;20247;-56
2022/11/25 00:10:08;;;;;;;11.43;5.45;;;16.40;52.70;;;;;;5012368;28;20250;-55
2022/11/25 00:12:35;;;;;;;10.68;5.45;;;16.40;52.70;;;;;;5012247;28;20196;-56
2022/11/25 00:15:02;;;;;;;7.38;4.88;;;16.40;53.00;;;;;;5013168;28;20729;-55
2022/11/25 00:17:29;;;;;;;8.75;5.22;;;16.30;52.80;;;;;;5013526;28;20275;-55
2022/11/25 00:19:56;;;;;;;9.38;4.78;;;16.30;53.00;;;;;;5013487;28;20196;-56
2022/11/25 00:22:23;;;;;;;7.30;4.72;;;16.20;52.80;;;;;;5013322;28;20199;-55
2022/11/25 00:24:52;;;;;;;8.85;4.50;;;16.20;53.00;;;;;;5012096;28;20251;-55
2022/11/25 00:27:19;;;;;;;11.13;4.90;;;16.20;52.90;;;;;;5013304;28;20211;-55
2022/11/25 00:29:46;;;;;;;7.82;4.53;;;16.10;53.00;;;;;;5012742;28;20196;-56
2022/11/25 00:32:14;;;;;;;10.00;5.20;;;16.10;53.00;;;;;;5013232;28;20723;-55
2022/11/25 00:34:41;;;;;;;8.65;4.15;;;16.10;53.00;;;;;;5011870;28;20228;-55
2022/11/25 00:37:08;;;;;;;9.80;4.40;;;16.10;52.90;;;;;;5011916;28;20231;-55
2022/11/25 00:39:38;;;;;;;7.72;4.05;;;16.10;53.00;;;;;;5013239;28;20200;-56
2022/11/25 00:44:52;;;;;;;8.93;4.50;;;16.00;53.70;;;;;;5011881;28;20221;-56
2022/11/25 00:47:20;;;;;;;9.25;4.53;;;16.00;53.10;;;;;;5013400;28;20275;-55
2022/11/25 00:49:48;;;;;;;7.85;4.03;;;15.90;53.10;;;;;;5011916;28;20201;-56
2022/11/25 00:52:17;;;;;;;7.03;4.20;;;15.90;53.10;;;;;;5013418;28;20280;-56
2022/11/25 00:54:44;;;;;;;6.85;4.05;;;15.90;53.20;;;;;;5013188;28;20582;-55
2022/11/25 00:57:13;;;;;;;5.57;4.13;;;15.90;53.10;;;;;;5012048;28;20203;-56
2022/11/25 00:59:40;;;;;;;7.53;4.63;;;15.90;53.20;;;;;;5013360;28;20193;-56
2022/11/25 01:02:07;;;;;;;6.32;4.00;;;15.90;53.30;;;;;;5013315;28;20288;-56
2022/11/25 01:04:35;;;;;;;6.00;4.32;;;15.80;53.20;;;;;;5011762;28;20220;-56
2022/11/25 01:07:02;;;;;;;8.23;4.13;;;15.80;53.20;;;;;;5011779;28;20209;-56
2022/11/25 01:09:29;;;;;;;6.43;4.30;;;15.80;53.20;;;;;;5013305;28;20197;-55
2022/11/25 01:11:57;;;;;;;6.78;3.90;;;15.80;53.30;;;;;;5012990;28;20296;-56
2022/11/25 01:14:25;;;;;;;6.95;4.10;;;15.70;53.10;;;;;;5011814;28;20224;-56
2022/11/25 01:16:52;;;;;;;5.85;4.18;;;15.80;53.40;;;;;;5013024;28;20189;-56
2022/11/25 01:19:19;;;;;;;5.85;3.72;;;15.80;53.20;;;;;;5011717;28;20228;-55
2022/11/25 01:21:47;;;;;;;6.13;3.80;;;15.70;53.30;;;;;;5012975;28;20204;-55
2022/11/25 01:24:14;;;;;;;5.47;3.85;;;15.70;53.30;;;;;;5013494;28;20323;-56
2022/11/25 01:26:42;;;;;;;6.88;4.20;;;15.70;53.30;;;;;;5016528;28;20189;-56
2022/11/25 01:29:12;;;;;;;7.50;4.30;;;15.70;53.30;;;;;;5015183;28;20290;-55
2022/11/25 01:31:41;;;;;;;6.57;3.83;;;15.70;53.30;;;;;;5015161;28;20211;-55
2022/11/25 01:34:12;;;;;;;6.68;3.92;;;15.70;53.40;;;;;;5014891;28;20319;-56
2022/11/25 01:36:39;;;;;;;6.72;3.85;;;15.70;53.40;;;;;;5016948;28;20169;-56
2022/11/25 01:39:06;;;;;;;6.45;4.30;;;15.70;53.40;;;;;;5015282;28;20197;-57
2022/11/25 01:41:34;;;;;;;7.18;4.22;;;15.60;53.40;;;;;;5014972;28;20578;-55
2022/11/25 01:44:12;;;;;;;7.63;4.35;;;15.60;53.40;;;;;;5014801;28;20271;-55
2022/11/25 01:46:54;;;;;;;5.32;3.78;;;15.60;53.50;;;;;;5014917;28;20220;-56
2022/11/25 01:49:25;;;;;;;5.65;3.90;;;15.60;53.50;;;;;;5014756;28;20197;-57
2022/11/25 01:51:54;;;;;;;4.90;3.60;;;15.60;53.50;;;;;;5016293;28;20252;-55
2022/11/25 01:54:23;;;;;;;6.00;3.88;;;15.60;53.50;;;;;;5015770;28;20216;-55
2022/11/25 01:56:51;;;;;;;5.95;4.05;;;15.60;53.50;;;;;;5014596;28;20279;-55
2022/11/25 01:59:18;;;;;;;5.40;3.85;;;15.60;53.60;;;;;;5014635;28;20205;-55
2022/11/25 02:01:47;;;;;;;6.40;4.25;;;15.60;53.50;;;;;;5014518;28;20208;-55
2022/11/25 02:04:14;;;;;;;4.55;3.60;;;15.60;53.60;;;;;;5015848;28;20228;-55
2022/11/25 02:06:46;;;;;;;5.57;3.80;;;15.50;53.40;;;;;;5015678;28;20195;-55
2022/11/25 02:09:13;;;;;;;6.85;4.13;;;15.60;53.60;;;;;;5014549;28;20189;-55
2022/11/25 02:11:41;;;;;;;4.15;3.55;;;15.60;53.50;;;;;;5014797;28;20654;-55
2022/11/25 02:14:09;;;;;;;5.55;3.80;;;15.50;53.40;;;;;;5014341;28;20232;-56
2022/11/25 02:16:36;;;;;;;5.95;3.78;;;15.50;53.40;;;;;;5014489;28;20204;-56
2022/11/25 02:19:05;;;;;;;5.07;3.53;;;15.50;53.50;;;;;;5014538;28;20616;-55
2022/11/25 02:21:36;;;;;;;6.40;4.10;;;15.50;54.00;;;;;;5014531;28;20234;-56
2022/11/25 02:24:06;;;;;;;6.75;3.97;;;15.50;54.00;;;;;;5014237;28;20212;-56
2022/11/25 02:26:35;;;;;;;4.55;3.58;;;15.50;53.50;;;;;;5015364;28;20189;-56
2022/11/25 02:29:02;;;;;;;5.90;3.67;;;15.50;53.40;;;;;;5014092;28;20201;-55
2022/11/25 02:31:30;;;;;;;4.43;3.40;;;15.50;53.40;;;;;;5013982;28;20284;-55
2022/11/25 02:33:57;;;;;;;5.07;3.90;;;15.50;53.40;;;;;;5013734;28;20220;-56
2022/11/25 02:36:24;;;;;;;4.55;3.47;;;15.50;53.40;;;;;;5013203;28;20236;-56
2022/11/25 02:38:53;;;;;;;4.28;3.47;;;15.50;53.40;;;;;;5015086;28;20196;-55
2022/11/25 02:41:22;;;;;;;4.35;3.47;;;15.50;53.40;;;;;;5013793;28;20573;-55
2022/11/25 02:43:57;;;;;;;5.30;3.75;;;15.50;53.40;;;;;;5014146;28;20646;-55
2022/11/25 02:46:24;;;;;;;5.55;3.80;;;15.50;53.30;;;;;;5013666;28;20745;-55
2022/11/25 02:48:52;;;;;;;4.85;3.70;;;15.50;53.50;;;;;;5013627;28;20287;-55
2022/11/25 02:51:20;;;;;;;5.40;3.42;;;15.50;53.40;;;;;;5013608;28;20220;-55
2022/11/25 02:53:47;;;;;;;4.88;3.65;;;15.50;53.50;;;;;;5013336;28;20229;-55
2022/11/25 02:56:16;;;;;;;4.68;3.70;;;15.50;53.50;;;;;;5013573;28;20201;-56
2022/11/25 02:58:44;;;;;;;4.93;3.70;;;15.40;53.30;;;;;;5013429;28;20271;-55
2022/11/25 03:01:12;;;;;;;4.85;3.80;;;15.50;53.50;;;;;;5013449;28;20203;-56
2022/11/25 03:03:40;;;;;;;5.00;3.60;;;15.40;53.30;;;;;;5013303;28;20312;-55
2022/11/25 03:06:07;;;;;;;6.18;4.05;;;15.40;53.40;;;;;;5013449;28;20208;-56
2022/11/25 03:08:35;;;;;;;4.22;3.70;;;15.40;53.50;;;;;;5013344;28;20196;-56
2022/11/25 03:11:05;;;;;;;4.03;3.50;;;15.40;53.40;;;;;;5014731;28;20180;-55
2022/11/25 03:13:33;;;;;;;4.65;3.72;;;15.40;53.30;;;;;;5013050;28;20363;-56
2022/11/25 03:16:01;;;;;;;5.55;4.03;;;15.40;53.90;;;;;;5014395;28;20192;-55
2022/11/25 03:18:30;;;;;;;5.43;3.80;;;15.40;53.30;;;;;;5013118;28;20559;-55
2022/11/25 03:20:57;;;;;;;6.28;4.20;;;15.40;53.40;;;;;;5013067;28;20283;-55
2022/11/25 03:23:25;;;;;;;5.15;4.22;;;15.40;53.30;;;;;;5013198;28;20657;-55
2022/11/25 03:25:53;;;;;;;4.35;3.65;;;15.40;53.30;;;;;;5013244;28;20200;-55
2022/11/25 03:28:21;;;;;;;4.90;3.80;;;15.40;53.30;;;;;;5012885;28;20196;-56
2022/11/25 03:30:48;;;;;;;3.90;3.50;;;15.30;53.40;;;;;;5014124;28;20242;-56
2022/11/25 03:33:16;;;;;;;4.05;3.63;;;15.40;53.50;;;;;;5013975;28;20208;-55
2022/11/25 03:35:48;;;;;;;5.00;3.30;;;15.30;53.40;;;;;;5012741;28;20247;-55
2022/11/25 03:38:15;;;;;;;4.53;3.33;;;15.30;53.30;;;;;;5014034;28;20192;-56
2022/11/25 03:40:42;;;;;;;4.10;3.60;;;15.30;53.40;;;;;;5013906;28;20666;-55
2022/11/25 03:43:09;;;;;;;3.90;3.50;;;15.30;53.30;;;;;;5012668;28;20223;-55
2022/11/25 03:45:37;;;;;;;3.70;3.20;;;15.30;53.30;;;;;;5012792;28;20193;-55
2022/11/25 03:48:07;;;;;;;4.25;3.58;;;15.30;53.40;;;;;;5012319;28;20197;-55
2022/11/25 03:50:34;;;;;;;5.03;3.60;;;15.30;53.40;;;;;;5012723;28;20197;-56
2022/11/25 03:53:02;;;;;;;4.60;3.25;;;15.30;53.30;;;;;;5012493;28;20195;-56
2022/11/25 03:55:30;;;;;;;4.20;3.38;;;15.30;53.30;;;;;;5012558;28;20597;-55
2022/11/25 03:57:57;;;;;;;4.93;3.83;;;15.20;53.10;;;;;;5012381;28;20200;-56
2022/11/25 04:00:25;;;;;;;5.07;3.40;;;15.30;53.30;;;;;;5013309;28;20281;-55
2022/11/25 04:03:01;;;;;;;3.50;3.20;;;15.20;53.10;;;;;;5012338;28;20200;-55
2022/11/25 04:05:31;;;;;;;4.05;3.40;;;15.30;53.30;;;;;;5012282;28;20221;-55
2022/11/25 04:08:03;;;;;;;4.07;3.50;;;15.20;53.10;;;;;;5012357;28;20254;-55
2022/11/25 04:10:32;;;;;;;4.50;3.40;;;15.30;53.20;;;;;;5012306;28;20571;-56
2022/11/25 04:12:58;;;;;;;3.83;3.10;;;15.20;53.20;;;;;;5012185;28;20196;-55
2022/11/25 04:15:33;;;;;;;4.68;3.40;;;15.20;53.10;;;;;;5012179;28;20232;-56
2022/11/25 04:18:00;;;;;;;3.83;3.45;;;15.20;53.30;;;;;;5012176;28;20212;-55
2022/11/25 04:20:27;;;;;;;4.18;3.17;;;15.20;53.80;;;;;;5012164;28;20208;-55
2022/11/25 04:23:08;;;;;;;4.65;3.40;;;15.20;53.90;;;;;;5012131;28;20248;-55
2022/11/25 04:25:42;;;;;;;4.57;3.30;;;15.20;53.90;;;;;;5012136;28;20195;-55
2022/11/25 04:28:19;;;;;;;5.80;3.40;;;15.10;53.80;;;;;;5013109;28;20199;-55
2022/11/25 04:30:46;;;;;;;3.83;3.42;;;15.10;53.80;;;;;;5012388;28;20566;-55
2022/11/25 04:33:13;;;;;;;3.63;3.30;;;15.10;53.90;;;;;;5012478;28;20248;-55
2022/11/25 04:35:42;;;;;;;3.92;3.15;;;15.10;53.90;;;;;;5017104;28;20682;-56
2022/11/25 04:38:12;;;;;;;4.22;3.05;;;15.20;53.80;;;;;;5012081;28;20251;-56
2022/11/25 04:40:40;;;;;;;4.53;3.30;;;15.20;53.90;;;;;;5012572;28;20228;-55
2022/11/25 04:43:16;;;;;;;3.72;3.30;;;15.20;53.90;;;;;;5012546;28;20224;-55
2022/11/25 04:45:49;;;;;;;4.85;3.45;;;15.20;53.80;;;;;;5013603;28;20169;-55
2022/11/25 04:48:16;;;;;;;4.13;3.10;;;15.20;53.70;;;;;;5012020;28;20196;-55
2022/11/25 04:50:44;;;;;;;4.53;3.50;;;15.30;53.70;;;;;;5012257;28;20192;-55
2022/11/25 04:53:15;;;;;;;3.55;2.90;;;15.30;53.70;;;;;;5012226;28;20212;-56
2022/11/25 04:55:42;;;;;;;3.60;3.30;;;15.30;53.70;;;;;;5013267;28;20685;-55
2022/11/25 04:59:38;;;;;;;3.90;3.20;;;15.30;53.70;;;;;;5012160;28;20201;-55
2022/11/25 05:01:02;;;;;;;3.20;2.90;;;15.30;53.50;;;;;;5015294;28;20193;-56
2022/11/25 05:03:29;;;;;;;3.15;2.80;;;15.30;53.50;;;;;;5017008;28;20207;-56
2022/11/25 05:05:56;;;;;;;4.35;3.10;;;15.30;53.50;;;;;;5015524;28;20205;-55
2022/11/25 05:08:25;;;;;;;3.92;3.42;;;15.30;53.50;;;;;;5015478;28;20693;-55
2022/11/25 05:10:52;;;;;;;3.15;2.85;;;15.30;53.30;;;;;;5015582;28;20193;-55
2022/11/25 05:13:19;;;;;;;4.30;3.30;;;15.30;53.30;;;;;;5016657;28;20219;-55
2022/11/25 05:15:47;;;;;;;3.65;3.35;;;15.30;53.10;;;;;;5015643;28;20220;-55
2022/11/25 05:18:15;;;;;;;4.65;3.50;;;15.30;53.00;;;;;;5018120;28;20267;-57
2022/11/25 05:20:45;;;;;;;4.43;3.22;;;15.30;53.30;;;;;;5018435;28;20753;-56
2022/11/25 05:23:15;;;;;;;4.10;3.30;;;15.40;52.70;;;;;;5015507;28;20233;-55
2022/11/25 05:25:44;;;;;;;4.47;3.40;;;15.40;52.70;;;;;;5016505;28;20185;-56
2022/11/25 05:28:25;;;;;;;3.53;3.10;;;15.40;52.60;;;;;;5015265;28;20188;-56
2022/11/25 05:30:53;;;;;;;4.78;3.58;;;15.40;52.50;;;;;;5015249;28;20201;-56
2022/11/25 05:33:20;;;;;;;4.07;3.10;;;15.50;52.50;;;;;;5015032;28;20228;-56
2022/11/25 05:35:54;;;;;;;3.75;3.45;;;15.50;52.40;;;;;;5015235;28;20223;-55
2022/11/25 05:38:22;;;;;;;4.78;3.88;;;15.50;52.20;;;;;;5015581;28;20180;-55
2022/11/25 05:40:51;;;;;;;3.75;3.20;;;15.50;52.30;;;;;;5015019;28;20200;-55
2022/11/25 05:43:19;;;;;;;3.63;3.10;;;15.50;52.40;;;;;;5014862;28;20215;-55
2022/11/25 05:45:46;;;;;;;3.70;3.28;;;15.50;52.20;;;;;;5014814;28;20196;-55
2022/11/25 05:48:14;;;;;;;3.55;3.25;;;15.50;52.10;;;;;;5014830;28;20203;-55
2022/11/25 05:50:42;;;;;;;3.90;3.30;;;15.50;52.00;;;;;;5014894;28;20764;-55
2022/11/25 05:53:19;;;;;;;3.15;2.80;;;15.50;52.10;;;;;;5014757;28;20230;-55
2022/11/25 05:55:56;;;;;;;3.30;3.00;;;15.50;52.00;;;;;;5014748;28;20220;-56
2022/11/25 05:58:38;;;;;;;4.05;3.15;;;15.60;52.10;;;;;;5015022;28;20200;-55
2022/11/25 06:01:07;;;;;;;4.70;3.17;;;15.60;52.20;;;;;;5014680;28;20197;-55
2022/11/25 06:03:34;;;;;;;5.00;3.53;;;15.60;51.90;;;;;;5014808;28;20589;-56
2022/11/25 06:06:02;;;;;;;4.63;3.55;;;15.60;51.80;;;;;;5014511;28;20205;-56
2022/11/25 06:08:30;;;;;;;3.60;3.28;;;15.60;51.90;;;;;;5031406;23;20691;-64
2022/11/25 06:10:59;;;;;;;4.20;3.70;;;15.60;51.80;;;;;;5018304;28;20306;-64
2022/11/25 06:13:27;;;;;;;4.43;3.50;;;15.60;51.80;;;;;;5009192;28;20209;-65
2022/11/25 06:15:54;;;;;;;5.47;3.55;;;15.60;51.60;;;;;;4995111;28;20221;-64
2022/11/25 06:18:22;;;;;;;4.70;3.70;;;15.60;52.10;;;;;;4995642;28;20279;-65
2022/11/25 06:20:56;;;;;;;4.10;3.00;;;15.70;51.50;;;;;;4994783;28;20197;-64
2022/11/25 06:23:23;;;;;;;3.25;2.90;;;15.60;51.60;;;;;;4994772;28;20197;-64
2022/11/25 06:25:51;;;;;;;3.95;3.22;;;15.70;51.60;;;;;;4994638;28;20200;-64
2022/11/25 06:28:19;;;;;;;3.92;3.45;;;15.70;51.40;;;;;;4995791;28;20694;-64
2022/11/25 06:30:49;;;;;;;3.30;3.00;;;15.70;51.40;;;;;;4994624;28;20201;-64
2022/11/25 06:33:27;;;;;;;3.20;2.90;;;15.70;51.60;;;;;;4994877;28;20193;-64
2022/11/25 06:35:55;;;;;;;3.55;3.22;;;15.70;51.60;;;;;;4994543;28;20221;-64
2022/11/25 06:38:22;;;;;;;3.33;2.80;;;15.70;51.80;;;;;;4995777;28;20272;-64
2022/11/25 06:40:49;;;;;;;3.05;2.78;;;15.70;51.60;;;;;;4994322;28;20655;-65
2022/11/25 06:43:17;;;;;;;3.90;3.50;;;15.70;51.60;;;;;;4995862;28;20186;-64
2022/11/25 06:45:45;;;;;;;3.58;2.88;;;15.70;51.40;;;;;;4995936;28;20196;-64
2022/11/25 06:48:13;;;;;;;4.30;3.28;;;15.70;51.40;;;;;;4994213;28;20726;-64
2022/11/25 06:50:40;;;;;;;3.92;3.00;;;15.70;51.20;;;;;;4994199;28;20205;-64
2022/11/25 06:53:08;;;;;;;3.72;3.00;;;15.70;51.10;;;;;;4995606;28;20189;-64
2022/11/25 06:55:35;;;;;;;3.75;3.10;;;15.70;51.20;;;;;;4994207;28;20244;-64
2022/11/25 06:58:02;;;;;;;3.00;2.80;;;15.70;51.10;;;;;;4994009;28;20316;-64
2022/11/25 07:00:29;;;;;;;4.07;3.28;;;15.70;51.80;;;;;;4993979;28;20237;-64
2022/11/25 07:02:57;;;;;;;3.85;3.05;;;15.70;51.10;;;;;;4995117;28;20192;-64
2022/11/25 07:05:24;;;;;;;3.80;3.10;;;15.80;51.70;;;;;;4995094;28;20193;-64
2022/11/25 07:07:51;;;;;;;4.55;3.40;;;15.70;51.50;;;;;;4994910;28;20213;-64
2022/11/25 07:10:19;;;;;;;4.30;3.20;;;15.70;51.60;;;;;;4995042;28;20539;-65
2022/11/25 07:12:46;;;;;;;3.88;3.47;;;15.70;51.70;;;;;;4993856;28;20224;-65
2022/11/25 07:15:13;;;;;;;3.85;3.40;;;15.70;51.70;;;;;;4993655;28;20255;-64
2022/11/25 07:17:40;;;;;;;3.90;3.50;;;15.70;51.80;;;;;;4994983;28;20245;-64
2022/11/25 07:20:10;;;;;;;3.60;2.80;;;15.70;51.60;;;;;;4995066;28;20276;-64
2022/11/25 07:22:37;;;;;;;3.55;3.08;;;15.70;51.70;;;;;;4994563;28;20194;-64
2022/11/25 07:25:04;;;;;;;3.40;3.10;;;15.80;51.70;;;;;;4994889;28;20243;-64
2022/11/25 07:27:32;;;;;;;3.47;3.10;;;15.80;51.70;;;;;;4994530;28;20209;-64
2022/11/25 07:29:59;;;;;;;3.85;2.88;;;15.80;51.90;;;;;;4993295;28;20209;-64
2022/11/25 07:32:26;;;;;;;3.65;3.28;;;15.90;51.60;;;;;;4994654;28;20557;-64
2022/11/25 07:34:53;;;;;;;3.67;3.38;;;15.80;51.60;;;;;;4993244;28;20301;-64
2022/11/25 07:37:22;;;;;;;4.00;3.60;;;15.80;51.50;;;;;;4994486;28;20248;-64
2022/11/25 07:39:49;;;;;;;4.22;3.70;;;15.90;51.30;;;;;;4993171;28;20205;-64
2022/11/25 07:42:16;;;;;;;5.30;3.83;;;15.90;51.70;;;;;;4993117;28;20747;-64
2022/11/25 07:44:43;;;;;;;3.75;3.38;;;15.90;52.40;;;;;;4993474;28;20209;-64
2022/11/25 07:47:46;;;;;;;4.75;3.40;;;15.90;51.70;;;;;;4986852;28;20249;-64
2022/11/25 07:50:14;;;;;;;3.97;3.30;;;15.90;51.60;;;;;;4994277;28;20189;-65
2022/11/25 07:52:42;;;;;;;4.60;3.88;;;16.00;51.60;;;;;;4993296;28;20689;-64
2022/11/25 07:55:09;;;;;;;4.00;3.58;;;16.00;51.40;;;;;;4992837;28;20209;-64
2022/11/25 07:57:36;;;;;;;4.82;3.58;;;16.00;51.40;;;;;;4992772;28;20249;-64
2022/11/25 08:00:04;;;;;;;4.15;3.72;;;16.00;51.40;;;;;;4994009;28;20332;-64
2022/11/25 08:02:38;;;;;;;3.85;3.22;;;16.10;51.50;;;;;;4994138;28;20268;-64
2022/11/25 08:05:07;;;;;;;4.53;3.58;;;16.10;51.50;;;;;;4994074;28;20230;-64
2022/11/25 08:07:34;;;;;;;4.20;3.80;;;16.10;51.50;;;;;;4993992;28;20324;-65
2022/11/25 08:10:02;;;;;;;5.18;4.25;;;16.10;51.40;;;;;;4992703;28;20198;-64
2022/11/25 08:12:31;;;;;;;3.97;3.58;;;16.20;52.10;;;;;;4994029;28;20280;-64
2022/11/25 08:14:58;;;;;;;5.25;3.90;;;16.10;51.50;;;;;;4993987;28;20561;-64
2022/11/25 08:17:25;;;;;;;4.07;3.65;;;16.20;51.20;;;;;;4993651;28;20407;-65
2022/11/25 08:19:52;;;;;;;4.25;3.67;;;16.20;51.40;;;;;;4993938;28;20197;-64
2022/11/25 08:22:19;;;;;;;4.90;4.18;;;16.20;51.20;;;;;;4992659;28;20201;-64
2022/11/25 08:24:47;;;;;;;5.95;3.83;;;16.30;51.40;;;;;;4992583;28;20205;-64
2022/11/25 08:27:15;;;;;;;4.60;3.95;;;16.30;51.30;;;;;;4992607;28;20237;-64
2022/11/25 08:29:42;;;;;;;4.85;3.72;;;16.30;51.20;;;;;;4992723;28;20348;-64
2022/11/25 08:32:10;;;;;;;4.90;3.75;;;16.30;50.90;;;;;;4993807;28;20194;-64
2022/11/25 08:34:37;;;;;;;6.78;3.85;;;16.30;51.40;;;;;;4993814;28;20201;-64
2022/11/25 08:37:05;;;;;;;4.28;3.47;;;16.30;51.00;;;;;;4996438;28;20271;-64
2022/11/25 08:39:32;;;;;;;4.15;3.70;;;16.40;51.10;;;;;;4997891;28;20284;-64
2022/11/25 08:41:59;;;;;;;5.07;3.72;;;16.40;51.00;;;;;;4996541;28;20209;-64
2022/11/25 08:44:28;;;;;;;4.57;3.97;;;16.40;51.20;;;;;;4997474;28;20201;-64
2022/11/25 08:46:56;;;;;;;4.40;3.70;;;16.40;51.00;;;;;;4996272;28;20213;-64
2022/11/25 08:49:25;;;;;;;5.00;3.92;;;16.50;51.10;;;;;;4996498;28;20205;-64
2022/11/25 08:51:52;;;;;;;4.70;3.50;;;16.50;51.30;;;;;;4997764;28;20271;-64
2022/11/25 08:54:19;;;;;;;4.70;3.85;;;16.60;51.10;;;;;;4996281;28;20273;-64
2022/11/25 08:56:46;;;;;;;5.40;3.63;;;16.70;51.20;;;;;;4996048;28;20707;-64
2022/11/25 08:59:14;;;;;;;4.80;3.80;;;16.80;51.00;;;;;;4997455;28;20234;-64
2022/11/25 09:01:42;;;;;;;4.63;3.85;;;16.90;51.00;;;;;;4996248;28;20201;-64
2022/11/25 09:04:10;;;;;;;6.18;4.20;;;16.90;50.80;;;;;;4997359;28;20201;-64
2022/11/25 09:06:38;;;;;;;4.30;3.70;;;16.90;50.80;;;;;;5077937;23;20717;-64
2022/11/25 09:09:05;;;;;;;4.40;3.90;;;17.00;50.50;;;;;;5037014;28;20192;-64
2022/11/25 09:11:32;;;;;;;4.05;3.63;;;17.00;50.40;;;;;;5019066;28;20673;-64
2022/11/25 09:13:59;;;;;;;4.50;4.10;;;17.10;51.10;;;;;;5018900;28;20203;-64
2022/11/25 09:16:26;;;;;;;4.28;3.88;;;17.10;50.40;;;;;;5018743;28;20282;-64
2022/11/25 09:18:55;;;;;;;4.97;4.38;;;17.20;50.30;;;;;;5018809;28;20204;-64
2022/11/25 09:21:23;;;;;;;4.43;4.03;;;17.20;50.20;;;;;;5018855;28;20200;-64
2022/11/25 09:23:51;;;;;;;4.15;3.70;;;17.30;50.30;;;;;;5036544;28;20188;-64
2022/11/25 09:26:21;;;;;;;4.50;3.50;;;17.30;50.10;;;;;;5018717;28;20295;-64
2022/11/25 09:28:48;;;;;;;4.88;3.75;;;17.40;50.00;;;;;;5036411;28;20188;-64
2022/11/25 09:31:15;;;;;;;3.83;3.53;;;17.50;49.90;;;;;;5018763;28;20200;-64
2022/11/25 09:33:43;;;;;;;3.80;3.42;;;17.50;49.70;;;;;;5036570;28;20272;-64
2022/11/25 09:36:14;;;;;;;4.45;4.03;;;17.50;49.60;;;;;;5036215;28;20204;-64
2022/11/25 09:38:43;;;;;;;4.28;3.88;;;17.50;49.60;;;;;;5036508;28;20210;-64
2022/11/25 09:46:40;;;;;;;4.78;4.05;;;17.60;49.70;;;;;;5018884;28;20204;-64
2022/11/25 09:46:54;;;;;;;5.28;3.95;;;17.60;49.10;;;;;;5018419;28;20595;-64
2022/11/25 09:49:30;;;;;;;4.20;3.80;;;17.60;48.90;;;;;;5018334;28;20200;-63
2022/11/25 09:52:03;;;;;;;4.65;3.88;;;17.60;50.00;;;;;;5018560;28;20200;-63
2022/11/25 09:54:34;;;;;;;4.40;4.00;;;17.50;49.40;;;;;;5036242;28;20200;-64
2022/11/25 09:57:04;;;;;;;6.65;4.40;;;17.50;50.20;;;;;;5018215;28;20228;-64
2022/11/25 09:59:34;;;;;;;5.28;3.88;;;17.50;50.40;;;;;;5036376;28;20182;-64
2022/11/25 10:02:02;;;;;;;982.67;526.42;;;17.50;50.70;;;;;;5035860;28;20200;-64
2022/11/25 10:04:32;;;;;;;544.30;334.70;;;17.40;53.90;;;;;;5018146;28;20725;-64
2022/11/25 10:07:02;;;;;;;360.70;241.95;;;17.40;55.90;;;;;;5035519;28;20222;-64
2022/11/25 10:09:30;;;;;;;277.30;193.00;;;17.40;57.30;;;;;;5017922;28;20265;-64
2022/11/25 10:12:00;;;;;;;259.77;166.63;;;17.50;56.60;;;;;;5017693;28;20188;-64
2022/11/25 10:14:30;;;;;;;218.52;142.35;;;17.50;55.40;;;;;;5035548;28;20195;-64
2022/11/25 10:17:02;;;;;;;174.55;109.45;;;17.50;54.60;;;;;;5017635;28;20318;-64
2022/11/25 10:19:43;;;;;;;163.18;110.25;;;17.50;53.50;;;;;;5017718;28;20192;-65
2022/11/25 10:22:19;;;;;;;155.75;106.75;;;17.50;53.40;;;;;;5017608;28;20257;-64
2022/11/25 10:24:47;;;;;;;148.48;100.85;;;17.50;53.40;;;;;;5017702;28;20192;-64
2022/11/25 10:27:17;;;;;;;146.48;91.75;;;17.50;53.60;;;;;;5035335;28;20701;-64
2022/11/25 10:29:45;;;;;;;151.48;92.72;;;17.60;53.50;;;;;;5017756;28;20196;-64
2022/11/25 10:32:20;;;;;;;129.55;89.18;;;17.60;53.70;;;;;;5017583;28;20279;-64
2022/11/25 10:34:49;;;;;;;132.65;85.55;;;17.60;53.70;;;;;;5017386;28;20203;-64
2022/11/25 10:37:19;;;;;;;116.32;79.22;;;17.60;53.70;;;;;;5035055;28;20743;-63
2022/11/25 10:39:46;;;;;;;115.20;80.80;;;17.60;53.70;;;;;;5035124;28;20191;-64
2022/11/25 10:42:16;;;;;;;117.15;75.60;;;17.70;53.70;;;;;;5035153;28;20196;-64
2022/11/25 10:44:43;;;;;;;115.85;75.32;;;17.70;53.60;;;;;;5017965;28;20609;-63
2022/11/25 10:47:20;;;;;;;107.95;70.22;;;17.80;53.40;;;;;;5035087;28;20208;-64
2022/11/25 10:49:54;;;;;;;101.85;69.25;;;17.70;53.80;;;;;;5017446;28;20192;-65
2022/11/25 10:52:23;;;;;;;107.32;67.15;;;17.80;52.80;;;;;;5017276;28;20188;-64
2022/11/25 10:54:56;;;;;;;86.07;57.33;;;17.80;52.80;;;;;;5017051;28;20250;-64
2022/11/25 10:57:25;;;;;;;77.75;51.55;;;17.90;53.00;;;;;;5016390;28;20232;-64
2022/11/25 10:59:56;;;;;;;82.93;55.78;;;17.90;52.50;;;;;;5034863;28;20212;-64
2022/11/25 11:02:25;;;;;;;79.32;53.35;;;17.90;52.30;;;;;;5034740;28;20268;-64
2022/11/25 11:04:57;;;;;;;69.65;47.90;;;17.90;52.20;;;;;;5034577;28;20871;-64
2022/11/25 11:07:26;;;;;;;73.47;47.55;;;17.90;52.10;;;;;;5016856;28;20605;-63
2022/11/25 11:09:53;;;;;;;67.65;46.03;;;17.90;52.10;;;;;;5016946;28;20192;-64
2022/11/25 11:12:22;;;;;;;63.70;42.42;;;17.90;52.30;;;;;;5016910;28;20283;-64
2022/11/25 11:14:49;;;;;;;58.25;43.90;;;17.90;52.90;;;;;;5034788;28;20188;-64
2022/11/25 11:17:30;;;;;;;62.45;42.47;;;17.90;53.50;;;;;;5018915;28;20259;-65
2022/11/25 11:20:01;;;;;;;68.93;46.47;;;17.90;52.90;;;;;;5022013;28;20196;-64
2022/11/25 11:22:31;;;;;;;63.90;45.67;;;17.90;54.30;;;;;;5016990;28;20291;-64
2022/11/25 11:25:07;;;;;;;61.28;40.95;;;17.90;53.20;;;;;;5017063;28;20204;-64
2022/11/25 11:27:36;;;;;;;55.17;38.30;;;18.00;53.60;;;;;;5016644;28;20677;-64
2022/11/25 11:30:09;;;;;;;60.42;39.05;;;18.00;53.70;;;;;;5016742;28;20207;-64
2022/11/25 11:32:36;;;;;;;52.58;35.70;;;18.10;53.60;;;;;;5016644;28;20188;-64
2022/11/25 11:35:05;;;;;;;52.10;36.25;;;18.10;53.90;;;;;;5034257;28;20268;-64
2022/11/25 11:37:41;;;;;;;44.67;31.33;;;18.10;53.20;;;;;;5016605;28;20224;-64
2022/11/25 11:40:29;;;;;;;43.47;31.42;;;18.20;52.60;;;;;;5034483;28;20179;-64
2022/11/25 11:43:19;;;;;;;49.13;31.85;;;18.20;52.30;;;;;;5016502;28;20572;-64
2022/11/25 11:45:57;;;;;;;41.70;28.10;;;18.20;52.10;;;;;;5022461;28;20569;-65
2022/11/25 11:48:27;;;;;;;39.92;28.42;;;18.20;51.90;;;;;;5016209;28;20262;-65
2022/11/25 11:51:00;;;;;;;46.08;28.98;;;18.20;51.90;;;;;;5016335;28;20207;-65
2022/11/25 11:53:31;;;;;;;41.95;28.77;;;18.20;51.80;;;;;;5016180;28;20366;-65
2022/11/25 11:56:02;;;;;;;34.97;25.83;;;18.20;51.80;;;;;;5016298;28;20200;-65
2022/11/25 11:58:41;;;;;;;38.67;26.83;;;18.20;51.70;;;;;;5016070;28;20282;-65
2022/11/25 12:01:15;;;;;;;35.17;25.73;;;18.20;51.80;;;;;;5033945;28;20181;-65
2022/11/25 12:03:48;;;;;;;36.05;24.95;;;18.20;52.30;;;;;;5016140;28;20218;-65
2022/11/25 12:06:15;;;;;;;33.35;22.80;;;18.20;51.60;;;;;;5033690;28;20666;-65
2022/11/25 12:08:46;;;;;;;31.35;23.90;;;18.20;51.50;;;;;;5033030;28;20235;-65
2022/11/25 12:11:16;;;;;;;32.88;21.40;;;18.20;51.40;;;;;;5015916;28;20658;-65
2022/11/25 12:13:45;;;;;;;30.30;21.35;;;18.20;51.40;;;;;;5033658;28;20571;-65
2022/11/25 12:16:15;;;;;;;30.52;21.42;;;18.30;51.40;;;;;;5033426;28;20197;-64
2022/11/25 12:18:45;;;;;;;34.40;21.75;;;18.20;51.20;;;;;;5015984;28;20212;-64
2022/11/25 12:21:17;;;;;;;27.27;20.33;;;18.30;51.20;;;;;;5033419;28;20246;-64
2022/11/25 12:23:50;;;;;;;28.55;19.85;;;18.30;51.80;;;;;;5016142;28;20196;-63
2022/11/25 12:26:19;;;;;;;26.60;18.48;;;18.30;51.10;;;;;;5033499;28;20630;-65
2022/11/25 12:28:49;;;;;;;33.65;20.67;;;18.20;51.20;;;;;;5033301;28;20208;-65
2022/11/25 12:31:19;;;;;;;22.52;16.42;;;18.20;51.50;;;;;;5033380;28;20177;-65
2022/11/25 12:33:53;;;;;;;23.75;16.58;;;18.20;51.40;;;;;;5015673;28;20575;-63
2022/11/25 12:36:26;;;;;;;24.50;16.90;;;18.20;51.40;;;;;;5015567;28;20198;-64
2022/11/25 12:38:55;;;;;;;22.23;15.52;;;18.20;51.70;;;;;;5015711;28;20196;-63
2022/11/25 12:41:25;;;;;;;22.45;16.15;;;18.20;51.70;;;;;;5033416;28;20188;-63
2022/11/25 12:43:55;;;;;;;22.23;15.05;;;18.30;51.80;;;;;;5015706;28;20200;-64
2022/11/25 12:46:28;;;;;;;24.17;15.82;;;18.30;52.50;;;;;;5015573;28;20733;-64
2022/11/25 12:48:56;;;;;;;21.42;15.07;;;18.30;51.80;;;;;;5015751;28;20189;-64
2022/11/25 12:51:49;;;;;;;19.98;14.02;;;18.30;51.80;;;;;;5015378;28;20192;-64
2022/11/25 12:54:41;;;;;;;19.30;13.75;;;18.30;52.00;;;;;;5002519;28;20200;-64
2022/11/25 12:57:40;;;;;;;18.75;12.70;;;18.30;51.80;;;;;;5009283;28;20223;-65